Terminal Aerodrome Forecast
Issued by NWS

Home | Current Version | Previous Version | Text Only | Print | Product List | Glossary On
Versions: 1 2 3 4 5 6 7 8 9 10 11 12 13 14
848
FTPA31 PHFO 260307 AAA
TAFHJH
TAF AMD
PHJH 260307Z 2603/2624 06015G25KT P6SM FEW030 SCT045
     FM260500 06011KT P6SM FEW030 SCT045
     FM262000 05015G25KT P6SM FEW030 SCT045
      AMD NOT SKED 2604/2616=

USA.gov is the U.S. government's official web portal to all federal, state and local government web resources and services.